createdAt,value
2022-10-13T00:00:29.565Z,7.10
2022-10-13T00:03:02.913Z,7.13
2022-10-13T00:08:03.140Z,6.47
2022-10-13T00:10:31.103Z,7.82
2022-10-13T00:13:05.086Z,7.00
2022-10-13T00:15:32.766Z,7.53
2022-10-13T00:18:00.212Z,6.45
2022-10-13T00:20:30.244Z,7.07
2022-10-13T00:23:01.469Z,7.05
2022-10-13T00:25:29.284Z,6.50
2022-10-13T00:28:00.753Z,7.22
2022-10-13T00:30:40.961Z,7.00
2022-10-13T00:33:09.561Z,7.50
2022-10-13T00:35:51.167Z,6.57
2022-10-13T00:38:22.269Z,7.18
2022-10-13T00:41:06.436Z,6.70
2022-10-13T00:44:08.932Z,6.78
2022-10-13T00:46:40.183Z,7.45
2022-10-13T00:49:17.600Z,8.00
2022-10-13T00:51:50.380Z,7.90
2022-10-13T00:54:25.902Z,7.45
2022-10-13T00:57:00.256Z,6.88
2022-10-13T01:02:39.992Z,6.75
2022-10-13T01:05:09.954Z,7.00
2022-10-13T01:07:50.068Z,7.60
2022-10-13T01:10:51.336Z,7.07
2022-10-13T01:13:43.881Z,7.57
2022-10-13T01:16:41.881Z,7.00
2022-10-13T01:19:58.927Z,7.40
2022-10-13T01:23:05.252Z,7.47
2022-10-13T01:25:49.174Z,6.63
2022-10-13T01:28:41.411Z,7.20
2022-10-13T01:31:28.439Z,6.75
2022-10-13T01:34:07.068Z,8.07
2022-10-13T01:37:28.304Z,7.68
2022-10-13T01:40:24.418Z,6.97
2022-10-13T01:43:32.296Z,7.10
2022-10-13T01:46:21.998Z,6.75
2022-10-13T01:48:52.909Z,6.88
2022-10-13T01:54:24.956Z,7.22
2022-10-13T01:57:11.738Z,6.57
2022-10-13T02:00:05.226Z,6.25
2022-10-13T02:03:10.267Z,6.40
2022-10-13T02:05:50.432Z,6.82
2022-10-13T02:09:03.777Z,6.80
2022-10-13T02:11:43.914Z,6.80
2022-10-13T02:14:32.279Z,7.05
2022-10-13T02:17:11.923Z,6.80
2022-10-13T02:19:54.291Z,6.88
2022-10-13T02:22:31.192Z,6.88
2022-10-13T02:25:05.323Z,7.30
2022-10-13T02:27:32.844Z,6.93
2022-10-13T02:30:03.422Z,7.00
2022-10-13T02:32:34.261Z,6.53
2022-10-13T02:35:03.967Z,6.78
2022-10-13T02:37:34.565Z,6.95
2022-10-13T02:40:06.590Z,6.95
2022-10-13T02:42:34.603Z,7.63
2022-10-13T02:45:13.913Z,6.40
2022-10-13T02:47:47.898Z,7.22
2022-10-13T02:50:21.013Z,6.63
2022-10-13T02:52:54.206Z,6.43
2022-10-13T02:55:22.262Z,6.90
2022-10-13T02:58:15.982Z,6.28
2022-10-13T03:01:15.273Z,5.97
2022-10-13T03:03:49.301Z,6.55
2022-10-13T03:06:22.677Z,5.78
2022-10-13T03:08:55.691Z,6.50
2022-10-13T03:11:34.600Z,5.72
2022-10-13T03:14:07.399Z,5.68
2022-10-13T03:16:50.896Z,5.40
2022-10-13T03:19:26.023Z,5.38
2022-10-13T03:21:53.274Z,5.88
2022-10-13T03:24:41.461Z,5.72
2022-10-13T03:27:16.541Z,5.30
2022-10-13T03:29:51.173Z,5.00
2022-10-13T03:32:30.379Z,4.97
2022-10-13T03:35:07.844Z,5.47
2022-10-13T03:37:35.399Z,5.18
2022-10-13T03:40:05.642Z,5.53
2022-10-13T03:42:40.128Z,5.10
2022-10-13T03:45:07.912Z,6.05
2022-10-13T03:47:39.340Z,5.95
2022-10-13T03:50:10.398Z,6.03
2022-10-13T03:52:38.308Z,5.70
2022-10-13T03:55:06.013Z,5.47
2022-10-13T03:57:40.045Z,6.13
2022-10-13T04:00:14.074Z,6.10
2022-10-13T04:02:53.739Z,6.55
2022-10-13T04:05:26.491Z,6.95
2022-10-13T04:08:01.254Z,6.07
2022-10-13T04:10:31.221Z,6.55
2022-10-13T04:13:09.058Z,5.90
2022-10-13T04:15:49.272Z,6.10
2022-10-13T04:18:16.727Z,6.55
2022-10-13T04:20:51.002Z,6.57
2022-10-13T04:23:20.886Z,5.85
2022-10-13T04:26:01.015Z,6.28
2022-10-13T04:28:38.382Z,5.72
2022-10-13T04:31:09.132Z,6.25
2022-10-13T04:33:39.421Z,6.03
2022-10-13T04:36:16.030Z,6.63
2022-10-13T04:38:47.287Z,7.40
2022-10-13T04:41:16.901Z,5.63
2022-10-13T04:43:47.568Z,6.35
2022-10-13T04:46:24.258Z,6.60
2022-10-13T04:49:01.866Z,6.88
2022-10-13T04:51:36.552Z,6.97
2022-10-13T04:54:10.767Z,6.10
2022-10-13T04:56:49.866Z,6.18
2022-10-13T04:59:26.662Z,6.57
2022-10-13T05:01:57.622Z,5.90
2022-10-13T05:04:33.331Z,6.75
2022-10-13T05:07:17.589Z,7.03
2022-10-13T05:09:53.592Z,5.75
2022-10-13T05:12:27.158Z,6.47
2022-10-13T05:14:58.247Z,7.20
2022-10-13T05:17:35.530Z,6.30
2022-10-13T05:20:14.871Z,6.30
2022-10-13T05:22:44.808Z,6.68
2022-10-13T05:25:15.982Z,6.10
2022-10-13T05:27:46.537Z,7.95
2022-10-13T05:30:17.355Z,6.07
2022-10-13T05:35:27.303Z,6.50
2022-10-13T05:37:57.287Z,7.32
2022-10-13T05:40:31.653Z,6.93
2022-10-13T05:43:01.159Z,6.93
2022-10-13T05:45:33.319Z,6.45
2022-10-13T05:48:01.557Z,7.13
2022-10-13T05:50:31.278Z,7.50
2022-10-13T05:53:01.765Z,6.47
2022-10-13T05:55:32.166Z,7.03
2022-10-13T05:57:59.479Z,7.35
2022-10-13T06:00:28.131Z,6.85
2022-10-13T06:03:25.078Z,6.97
2022-10-13T06:06:10.427Z,7.00
2022-10-13T06:08:39.444Z,8.27
2022-10-13T06:11:21.938Z,7.05
2022-10-13T06:13:51.789Z,7.88
2022-10-13T06:16:19.855Z,6.82
2022-10-13T06:18:47.372Z,8.10
2022-10-13T06:21:17.665Z,7.20
2022-10-13T06:23:45.093Z,7.25
2022-10-13T06:26:15.290Z,7.13
2022-10-13T06:28:50.451Z,7.05
2022-10-13T06:31:21.520Z,8.02
2022-10-13T06:33:50.119Z,7.88
2022-10-13T06:36:20.956Z,8.55
2022-10-13T06:38:48.095Z,7.85
2022-10-13T06:41:23.985Z,7.45
2022-10-13T06:43:58.044Z,7.63
2022-10-13T06:46:31.540Z,7.90
2022-10-13T06:48:59.657Z,7.15
2022-10-13T06:51:34.873Z,8.25
2022-10-13T06:54:08.716Z,7.25
2022-10-13T06:56:37.386Z,7.75
2022-10-13T06:59:10.861Z,7.53
2022-10-13T07:01:43.027Z,7.90
2022-10-13T07:04:13.260Z,8.90
2022-10-13T07:06:44.086Z,8.02
2022-10-13T07:09:12.364Z,8.48
2022-10-13T07:11:39.541Z,8.38
2022-10-13T07:14:07.072Z,8.40
2022-10-13T07:16:34.522Z,7.82
2022-10-13T07:19:02.281Z,8.40
2022-10-13T07:21:31.430Z,8.68
2022-10-13T07:24:06.683Z,8.77
2022-10-13T07:26:37.846Z,8.40
2022-10-13T07:29:05.645Z,8.25
2022-10-13T07:31:32.910Z,9.23
2022-10-13T07:34:01.666Z,8.52
2022-10-13T07:36:30.389Z,8.35
2022-10-13T07:39:04.799Z,9.73
2022-10-13T07:41:38.361Z,9.77
2022-10-13T07:44:08.899Z,10.18
2022-10-13T07:46:38.518Z,10.15
2022-10-13T07:49:06.099Z,9.13
2022-10-13T07:51:35.941Z,8.18
2022-10-13T07:54:03.683Z,8.02
2022-10-13T07:56:35.776Z,8.07
2022-10-13T07:59:09.891Z,7.90
2022-10-13T08:01:41.394Z,7.63
2022-10-13T08:04:14.207Z,7.15
2022-10-13T08:06:45.402Z,7.78
2022-10-13T08:09:21.231Z,7.30
2022-10-13T08:11:48.963Z,7.20
2022-10-13T08:14:16.478Z,7.35
2022-10-13T08:16:49.919Z,7.50
2022-10-13T08:19:26.742Z,7.80
2022-10-13T08:21:59.522Z,6.28
2022-10-13T08:24:33.925Z,7.05
2022-10-13T08:27:04.848Z,6.07
2022-10-13T08:29:37.436Z,7.45
2022-10-13T08:32:05.030Z,6.68
2022-10-13T08:34:34.946Z,6.85
2022-10-13T08:37:05.107Z,6.82
2022-10-13T08:39:43.274Z,5.43
2022-10-13T08:42:19.003Z,6.72
2022-10-13T08:48:05.114Z,6.55
2022-10-13T08:50:38.506Z,7.00
2022-10-13T08:55:59.059Z,6.50
2022-10-13T08:58:41.698Z,3.80
2022-10-13T09:01:18.880Z,3.47
2022-10-13T09:04:26.870Z,3.10
2022-10-13T09:07:12.192Z,2.50
2022-10-13T09:09:42.266Z,2.72
2022-10-13T09:12:12.898Z,3.47
2022-10-13T09:14:59.323Z,2.40
2022-10-13T09:20:20.855Z,2.65
2022-10-13T09:23:17.815Z,2.65
2022-10-13T09:25:50.892Z,2.78
2022-10-13T09:28:28.023Z,2.40
2022-10-13T09:31:11.703Z,2.97
2022-10-13T09:33:41.877Z,2.50
2022-10-13T09:36:12.109Z,2.50
2022-10-13T09:38:44.943Z,2.95
2022-10-13T09:41:15.256Z,3.22
2022-10-13T09:43:51.322Z,2.60
2022-10-13T09:46:47.135Z,3.28
2022-10-13T09:49:44.841Z,3.25
2022-10-13T09:52:23.115Z,3.72
2022-10-13T09:55:03.280Z,2.92
2022-10-13T09:57:55.730Z,3.05
2022-10-13T10:00:30.366Z,3.75
2022-10-13T10:03:23.868Z,2.70
2022-10-13T10:06:16.463Z,4.35
2022-10-13T10:09:12.441Z,3.15
2022-10-13T10:11:52.136Z,3.83
2022-10-13T10:14:33.579Z,3.63
2022-10-13T10:17:16.703Z,3.33
2022-10-13T10:19:52.346Z,3.42
2022-10-13T10:22:37.759Z,3.50
2022-10-13T10:25:38.131Z,3.97
2022-10-13T10:28:13.437Z,3.67
2022-10-13T10:31:14.273Z,4.18
2022-10-13T10:34:29.344Z,3.58
2022-10-13T10:37:35.591Z,3.40
2022-10-13T10:40:18.420Z,4.03
2022-10-13T10:43:24.848Z,4.25
2022-10-13T10:46:01.542Z,3.75
2022-10-13T10:48:39.238Z,4.40
2022-10-13T10:51:16.677Z,3.85
2022-10-13T10:53:58.257Z,4.10
2022-10-13T10:56:46.391Z,4.80
2022-10-13T10:59:35.269Z,5.60
2022-10-13T11:02:22.269Z,4.47
2022-10-13T11:05:06.081Z,4.32
2022-10-13T11:07:47.647Z,4.72
2022-10-13T11:10:30.013Z,4.25
2022-10-13T11:13:17.277Z,4.93
2022-10-13T11:15:52.237Z,3.88
2022-10-13T11:19:20.258Z,3.42
2022-10-13T11:22:10.435Z,3.80
2022-10-13T11:24:39.273Z,3.40
2022-10-13T11:27:42.079Z,4.28
2022-10-13T11:30:54.641Z,4.15
2022-10-13T11:33:40.328Z,4.20
2022-10-13T11:36:48.601Z,3.53
2022-10-13T11:39:28.468Z,3.78
2022-10-13T11:42:21.949Z,4.55
2022-10-13T11:45:00.578Z,3.67
2022-10-13T11:48:01.768Z,4.28
2022-10-13T11:50:53.619Z,3.50
2022-10-13T11:53:48.021Z,3.83
2022-10-13T11:56:48.464Z,3.42
2022-10-13T11:59:40.344Z,4.35
2022-10-13T12:02:10.489Z,3.58
2022-10-13T12:04:46.560Z,5.03
2022-10-13T12:07:22.183Z,4.70
2022-10-13T12:09:55.220Z,3.72
2022-10-13T12:12:34.376Z,4.82
2022-10-13T12:15:30.546Z,3.80
2022-10-13T12:18:02.703Z,3.35
2022-10-13T12:20:33.389Z,2.83
2022-10-13T12:23:05.503Z,3.83
2022-10-13T12:25:42.931Z,3.43
2022-10-13T12:28:23.524Z,3.30
2022-10-13T12:30:54.271Z,3.30
2022-10-13T12:33:34.881Z,4.07
2022-10-13T12:36:19.436Z,3.53
2022-10-13T12:38:55.658Z,2.97
2022-10-13T12:41:32.893Z,3.10
2022-10-13T12:44:08.339Z,3.63
2022-10-13T12:46:56.741Z,3.17
2022-10-13T12:49:30.282Z,3.15
2022-10-13T12:52:12.520Z,3.90
2022-10-13T12:54:52.838Z,3.38
2022-10-13T12:57:41.916Z,4.03
2022-10-13T13:00:27.347Z,4.20
2022-10-13T13:03:07.829Z,2.92
2022-10-13T13:05:52.937Z,3.88
2022-10-13T13:08:35.335Z,4.43
2022-10-13T13:11:07.559Z,3.67
2022-10-13T13:13:39.210Z,3.20
2022-10-13T13:16:19.344Z,3.90
2022-10-13T13:18:49.918Z,3.17
2022-10-13T13:21:20.515Z,4.07
2022-10-13T13:23:53.733Z,3.38
2022-10-13T13:26:24.507Z,2.65
2022-10-13T13:29:00.809Z,3.30
2022-10-13T13:31:41.015Z,3.28
2022-10-13T13:34:08.948Z,3.22
2022-10-13T13:36:40.743Z,3.05
2022-10-13T13:39:19.697Z,3.33
2022-10-13T13:41:47.730Z,3.00
2022-10-13T13:44:18.475Z,3.72
2022-10-13T13:46:48.953Z,2.30
2022-10-13T13:49:19.847Z,2.47
2022-10-13T13:51:50.733Z,2.97
2022-10-13T13:54:22.733Z,4.28
2022-10-13T13:56:58.599Z,3.50
2022-10-13T13:59:27.323Z,3.60
2022-10-13T14:01:58.019Z,2.97
2022-10-13T14:04:30.586Z,3.08
2022-10-13T14:07:01.168Z,3.05
2022-10-13T14:09:31.845Z,3.08
2022-10-13T14:12:04.352Z,2.70
2022-10-13T14:14:39.583Z,2.92
2022-10-13T14:17:13.111Z,2.42
2022-10-13T14:19:55.110Z,2.70
2022-10-13T14:22:42.449Z,2.63
2022-10-13T14:25:31.122Z,2.80
2022-10-13T14:28:12.555Z,2.53
2022-10-13T14:31:10.227Z,2.75
2022-10-13T14:33:39.228Z,2.50
2022-10-13T14:39:12.441Z,2.38
2022-10-13T14:41:48.131Z,2.97
2022-10-13T14:44:22.123Z,2.90
2022-10-13T14:46:56.044Z,3.85
2022-10-13T14:49:34.128Z,2.92
2022-10-13T14:52:07.348Z,3.33
2022-10-13T14:55:07.911Z,3.00
2022-10-13T14:57:41.180Z,2.70
2022-10-13T15:00:31.112Z,2.92
2022-10-13T15:03:22.615Z,3.22
2022-10-13T15:06:11.595Z,2.28
2022-10-13T15:09:03.465Z,3.42
2022-10-13T15:11:52.645Z,2.72
2022-10-13T15:14:41.948Z,3.05
2022-10-13T15:17:32.334Z,3.33
2022-10-13T15:20:22.724Z,3.35
2022-10-13T15:22:57.125Z,2.80
2022-10-13T15:25:24.838Z,4.10
2022-10-13T15:28:01.180Z,2.97
2022-10-13T15:30:39.238Z,2.60
2022-10-13T15:33:23.352Z,2.70
2022-10-13T15:36:08.829Z,2.67
2022-10-13T15:39:09.863Z,2.70
2022-10-13T15:41:42.050Z,3.03
2022-10-13T15:44:09.773Z,2.97
2022-10-13T15:47:06.641Z,2.70
2022-10-13T15:49:41.626Z,3.15
2022-10-13T15:52:20.548Z,2.95
2022-10-13T15:54:57.135Z,2.40
2022-10-13T15:57:31.349Z,2.97
2022-10-13T16:03:18.643Z,3.30
2022-10-13T16:06:09.063Z,2.47
2022-10-13T16:09:03.168Z,2.95
2022-10-13T16:11:46.572Z,3.20
2022-10-13T16:14:30.001Z,2.58
2022-10-13T16:17:07.295Z,2.28
2022-10-13T16:20:01.921Z,3.00
2022-10-13T16:22:41.788Z,2.72
2022-10-13T16:25:18.894Z,3.20
2022-10-13T16:28:04.690Z,2.58
2022-10-13T16:30:49.137Z,2.53
2022-10-13T16:33:19.284Z,2.78
2022-10-13T16:35:46.827Z,3.60
2022-10-13T16:38:14.822Z,3.15
2022-10-13T16:40:42.754Z,2.80
2022-10-13T16:43:10.838Z,3.13
2022-10-13T16:45:59.274Z,3.33
2022-10-13T16:48:31.345Z,3.08
2022-10-13T16:51:01.596Z,3.45
2022-10-13T16:53:33.359Z,3.80
2022-10-13T16:56:01.480Z,2.83
2022-10-13T16:58:33.895Z,3.85
2022-10-13T17:01:09.836Z,3.38
2022-10-13T17:03:39.534Z,3.72
2022-10-13T17:06:11.329Z,3.38
2022-10-13T17:08:39.506Z,3.20
2022-10-13T17:11:07.982Z,3.75
2022-10-13T17:13:39.757Z,3.55
2022-10-13T17:16:07.428Z,3.42
2022-10-13T17:18:35.002Z,3.40
2022-10-13T17:21:06.254Z,3.35
2022-10-13T17:23:34.079Z,3.72
2022-10-13T17:26:04.221Z,3.25
2022-10-13T17:28:36.619Z,3.70
2022-10-13T17:31:14.171Z,3.28
2022-10-13T17:33:45.438Z,2.97
2022-10-13T17:36:16.641Z,4.38
2022-10-13T17:38:48.682Z,4.00
2022-10-13T17:41:17.916Z,3.92
2022-10-13T17:43:54.705Z,3.20
2022-10-13T17:51:41.446Z,3.85
2022-10-13T17:54:15.758Z,3.60
2022-10-13T17:56:44.694Z,2.85
2022-10-13T17:59:16.716Z,3.65
2022-10-13T18:01:46.337Z,3.80
2022-10-13T18:04:20.918Z,3.65
2022-10-13T18:06:49.061Z,3.60
2022-10-13T18:09:20.886Z,3.70
2022-10-13T18:11:53.090Z,3.47
2022-10-13T18:14:23.270Z,3.35
2022-10-13T18:16:59.782Z,3.50
2022-10-13T18:19:36.540Z,4.40
2022-10-13T18:22:09.850Z,4.18
2022-10-13T18:24:42.944Z,3.60
2022-10-13T18:27:11.928Z,3.63
2022-10-13T18:29:44.052Z,3.40
2022-10-13T18:32:13.478Z,3.60
2022-10-13T18:34:43.318Z,4.03
2022-10-13T18:37:13.448Z,3.83
2022-10-13T18:39:46.679Z,3.53
2022-10-13T18:42:19.909Z,4.05
2022-10-13T18:44:57.611Z,5.13
2022-10-13T18:47:29.055Z,3.90
2022-10-13T18:49:56.928Z,4.00
2022-10-13T18:52:29.521Z,4.30
2022-10-13T18:55:03.460Z,3.88
2022-10-13T18:58:08.251Z,4.22
2022-10-13T19:00:38.549Z,4.05
2022-10-13T19:03:11.246Z,4.95
2022-10-13T19:05:40.349Z,4.13
2022-10-13T19:08:21.348Z,4.80
2022-10-13T19:10:52.716Z,4.90
2022-10-13T19:13:31.951Z,4.97
2022-10-13T19:16:01.611Z,4.50
2022-10-13T19:18:36.589Z,5.10
2022-10-13T19:21:07.400Z,5.45
2022-10-13T19:23:38.331Z,4.60
2022-10-13T19:26:32.044Z,5.00
2022-10-13T19:29:24.834Z,5.78
2022-10-13T19:31:52.756Z,5.68
2022-10-13T19:37:26.990Z,5.28
2022-10-13T19:39:55.178Z,6.15
2022-10-13T19:42:27.860Z,5.50
2022-10-13T19:45:06.474Z,5.47
2022-10-13T19:47:53.536Z,5.25
2022-10-13T19:50:30.831Z,6.40
2022-10-13T19:52:59.340Z,6.63
2022-10-13T19:55:33.463Z,5.25
2022-10-13T19:58:01.802Z,5.35
2022-10-13T20:00:36.059Z,5.82
2022-10-13T20:03:08.080Z,5.97
2022-10-13T20:05:40.663Z,6.35
2022-10-13T20:08:14.869Z,6.53
2022-10-13T20:10:45.235Z,5.18
2022-10-13T20:13:12.998Z,6.20
2022-10-13T20:15:48.891Z,6.05
2022-10-13T20:18:29.331Z,6.10
2022-10-13T20:21:09.803Z,5.90
2022-10-13T20:23:45.937Z,6.30
2022-10-13T20:29:13.349Z,5.15
2022-10-13T20:31:49.280Z,4.90
2022-10-13T20:34:24.971Z,5.15
2022-10-13T20:37:03.943Z,6.20
2022-10-13T20:39:49.282Z,5.10
2022-10-13T20:42:25.583Z,5.22
2022-10-13T20:44:59.416Z,5.05
2022-10-13T20:47:33.805Z,6.88
2022-10-13T20:50:10.379Z,5.60
2022-10-13T20:52:47.011Z,6.93
2022-10-13T20:55:31.715Z,6.07
2022-10-13T20:58:12.618Z,5.55
2022-10-13T21:01:12.460Z,5.47
2022-10-13T21:03:48.569Z,5.53
2022-10-13T21:06:31.721Z,5.20
2022-10-13T21:09:12.221Z,6.03
2022-10-13T21:11:48.479Z,7.00
2022-10-13T21:14:32.363Z,7.72
2022-10-13T21:17:29.214Z,6.80
2022-10-13T21:20:36.848Z,6.97
2022-10-13T21:23:23.972Z,6.05
2022-10-13T21:26:06.109Z,6.20
2022-10-13T21:28:57.960Z,6.53
2022-10-13T21:31:40.161Z,5.90
2022-10-13T21:34:27.301Z,5.68
2022-10-13T21:37:24.063Z,5.57
2022-10-13T21:40:11.389Z,5.03
2022-10-13T21:42:58.190Z,5.68
2022-10-13T21:48:03.504Z,7.15
2022-10-13T21:50:39.888Z,7.22
2022-10-13T21:53:12.151Z,6.05
2022-10-13T21:55:45.894Z,6.53
2022-10-13T21:58:23.173Z,7.07
2022-10-13T22:01:04.665Z,6.40
2022-10-13T22:03:38.667Z,6.18
2022-10-13T22:06:27.715Z,10.68
2022-10-13T22:09:07.123Z,10.32
2022-10-13T22:11:46.512Z,10.30
2022-10-13T22:14:22.154Z,8.00
2022-10-13T22:17:10.922Z,9.27
2022-10-13T22:19:43.246Z,6.60
2022-10-13T22:22:17.826Z,6.28
2022-10-13T22:24:54.081Z,6.50
2022-10-13T22:27:28.192Z,9.38
2022-10-13T22:29:58.527Z,11.00
2022-10-13T22:32:37.383Z,8.82
2022-10-13T22:35:13.040Z,8.27
2022-10-13T22:37:48.732Z,7.93
2022-10-13T22:40:22.597Z,7.97
2022-10-13T22:42:59.055Z,6.97
2022-10-13T22:45:32.818Z,7.18
2022-10-13T22:48:05.092Z,6.88
2022-10-13T22:50:34.849Z,6.45
2022-10-13T22:58:22.619Z,7.53
2022-10-13T23:00:50.918Z,6.75
2022-10-13T23:03:21.146Z,7.50
2022-10-13T23:05:57.643Z,6.97
2022-10-13T23:08:29.129Z,7.72
2022-10-13T23:10:58.689Z,7.82
2022-10-13T23:13:30.132Z,7.80
2022-10-13T23:16:23.759Z,7.43
2022-10-13T23:19:01.133Z,7.03
2022-10-13T23:21:37.068Z,7.05
2022-10-13T23:24:07.558Z,7.53
2022-10-13T23:26:49.945Z,7.60
2022-10-13T23:29:17.668Z,7.00
2022-10-13T23:31:47.805Z,7.43
2022-10-13T23:34:20.370Z,6.50
2022-10-13T23:36:52.335Z,6.35
2022-10-13T23:39:22.940Z,6.72
2022-10-13T23:41:57.053Z,6.80
2022-10-13T23:44:29.782Z,6.65
2022-10-13T23:46:58.263Z,6.97
2022-10-13T23:49:31.592Z,6.72
2022-10-13T23:54:41.779Z,6.30
2022-10-13T23:57:10.285Z,6.95
